Terminal Aerodrome Forecast
Issued by NWS

Home | Current Version | Previous Version | Graphics & Text | Print | Product List | Glossary On
Versions: 1 2 3 4 5 6 7 8 9 10 11 12 13 14 15 16 17 18 19 20
000
FTUS43 KGRB 181827 AAB
TAFRHI
TAF AMD
KRHI 181827Z 1818/1918 23010G16KT P6SM BKN035 BKN060
     FM182100 25008KT P6SM -TSRA SCT025 BKN035CB
      TEMPO 1821/1823 2SM TSRA BKN025 OVC035CB
     FM182300 31005KT P6SM SCT015 BKN030
     FM190200 33004KT P6SM SCT030 BKN060
     FM190600 34003KT P6SM SCT150=

USA.gov is the U.S. government's official web portal to all federal, state and local government web resources and services.